Time;durP1;ratioP1;P1;durP2;ratioP2;P2;SDS_P1;SDS_P2;PMS_P1;PMS_P2;Temp;Humidity;BMP_temperature;BMP_pressure;BME280_temperature;BME280_humidity;BME280_pressure;Samples;Min_cycle;Max_cycle;Signal;HPM_P1;HPM_P2
2023/09/12 00:00:50;;;;;;;101.28;47.15;;;;;;;;;;4979923;28;20089;-59
2023/09/12 00:03:44;;;;;;;109.28;49.60;;;;;;;;;;4976840;28;20058;-59
2023/09/12 00:06:31;;;;;;;111.97;50.28;;;;;;;;;;4978830;28;20426;-59
2023/09/12 00:09:31;;;;;;;108.63;50.40;;;;;;;;;;4974349;28;20418;-60
2023/09/12 00:11:59;;;;;;;122.50;52.15;;;;;;;;;;4982051;28;20422;-51
2023/09/12 00:14:53;;;;;;;125.43;53.97;;;;;;;;;;4982859;28;20173;-51
2023/09/12 00:17:40;;;;;;;122.30;50.22;;;;;;;;;;4982763;28;20471;-51
2023/09/12 00:20:34;;;;;;;139.05;57.30;;;;;;;;;;4971451;28;20053;-50
2023/09/12 00:23:23;;;;;;;137.45;56.88;;;;;;;;;;4978046;28;20057;-49
2023/09/12 00:26:16;;;;;;;135.57;57.47;;;;;;;;;;4968235;28;20134;-48
2023/09/12 00:29:03;;;;;;;130.40;57.03;;;;;;;;;;4985181;28;20054;-59
2023/09/12 00:31:57;;;;;;;140.57;60.40;;;;;;;;;;4984389;28;20730;-59
2023/09/12 00:34:51;;;;;;;118.43;51.65;;;;;;;;;;4984738;28;20061;-59
2023/09/12 00:37:45;;;;;;;132.57;57.25;;;;;;;;;;4981371;28;20605;-59
2023/09/12 00:40:32;;;;;;;139.40;57.67;;;;;;;;;;4983661;28;20054;-59
2023/09/12 00:43:26;;;;;;;140.40;59.03;;;;;;;;;;4980050;28;20050;-58
2023/09/12 00:46:18;;;;;;;142.20;59.38;;;;;;;;;;4983866;28;20050;-45
2023/09/12 00:49:12;;;;;;;171.50;66.28;;;;;;;;;;4984653;28;20106;-49
2023/09/12 00:52:00;;;;;;;158.90;63.63;;;;;;;;;;4978242;28;20062;-47
2023/09/12 00:54:54;;;;;;;147.35;63.22;;;;;;;;;;4977035;28;20896;-50
2023/09/12 00:57:42;;;;;;;148.65;61.60;;;;;;;;;;4980153;28;20050;-50
2023/09/12 01:00:35;;;;;;;158.70;62.95;;;;;;;;;;4979809;28;20054;-52
2023/09/12 01:03:22;;;;;;;153.48;62.20;;;;;;;;;;4976255;28;20078;-57
2023/09/12 01:06:19;;;;;;;147.65;61.67;;;;;;;;;;4983010;28;20451;-50
2023/09/12 01:09:13;;;;;;;174.25;66.65;;;;;;;;;;4982618;28;20054;-49
2023/09/12 01:12:07;;;;;;;157.10;65.15;;;;;;;;;;4983065;28;20080;-48
2023/09/12 01:14:54;;;;;;;155.27;62.58;;;;;;;;;;4982596;28;20053;-47
2023/09/12 01:17:49;;;;;;;166.30;65.10;;;;;;;;;;4981537;28;20054;-48
2023/09/12 01:20:37;;;;;;;153.63;62.87;;;;;;;;;;4981704;28;20153;-62
2023/09/12 01:23:50;;;;;;;160.80;65.07;;;;;;;;;;4984068;28;20062;-51
2023/09/12 01:26:49;;;;;;;164.20;64.65;;;;;;;;;;4983632;28;20137;-46
2023/09/12 01:29:44;;;;;;;172.23;69.43;;;;;;;;;;4983407;28;20046;-51
2023/09/12 01:32:32;;;;;;;167.03;63.80;;;;;;;;;;4976653;28;20716;-49
2023/09/12 01:35:26;;;;;;;151.90;59.63;;;;;;;;;;4983602;28;20309;-52
2023/09/12 01:38:20;;;;;;;166.35;66.35;;;;;;;;;;4983530;28;20416;-50
2023/09/12 01:41:14;;;;;;;165.10;65.40;;;;;;;;;;4983059;28;20054;-59
2023/09/12 01:44:02;;;;;;;175.85;68.57;;;;;;;;;;4981765;28;20073;-51
2023/09/12 01:46:58;;;;;;;145.50;63.28;;;;;;;;;;4978718;28;20054;-49
2023/09/12 01:49:53;;;;;;;172.00;65.63;;;;;;;;;;4980844;28;20533;-49
2023/09/12 01:52:47;;;;;;;165.20;64.40;;;;;;;;;;4981347;28;20145;-50
2023/09/12 01:55:43;;;;;;;162.02;66.20;;;;;;;;;;4979870;28;20555;-49
2023/09/12 01:58:31;;;;;;;195.65;68.93;;;;;;;;;;4981542;28;20054;-53
2023/09/12 02:01:27;;;;;;;181.20;66.57;;;;;;;;;;4980167;28;20109;-59
2023/09/12 02:04:08;;;;;;;194.57;67.82;;;;;;;;;;4981507;28;20077;-59
2023/09/12 02:06:42;;;;;;;176.82;64.70;;;;;;;;;;4981022;28;20069;-60
2023/09/12 02:09:35;;;;;;;226.45;77.25;;;;;;;;;;4982575;28;20062;-59
2023/09/12 02:12:29;;;;;;;229.05;73.07;;;;;;;;;;4982931;28;20121;-59
2023/09/12 02:15:16;;;;;;;221.30;74.28;;;;;;;;;;4983475;28;21485;-59
2023/09/12 02:18:10;;;;;;;179.77;64.60;;;;;;;;;;4983935;28;20503;-59
2023/09/12 02:21:04;;;;;;;239.35;75.10;;;;;;;;;;4983267;28;20049;-60
2023/09/12 02:23:52;;;;;;;297.83;82.03;;;;;;;;;;4982269;28;20078;-59
2023/09/12 02:26:45;;;;;;;276.88;80.63;;;;;;;;;;4982458;28;20534;-59
2023/09/12 02:29:32;;;;;;;294.67;81.32;;;;;;;;;;4986321;28;20046;-59
2023/09/12 02:32:26;;;;;;;297.80;83.50;;;;;;;;;;4984266;28;20064;-59
2023/09/12 02:35:13;;;;;;;307.20;82.50;;;;;;;;;;4982849;28;20046;-56
2023/09/12 02:38:07;;;;;;;326.00;82.40;;;;;;;;;;4982738;28;20054;-63
2023/09/12 02:40:55;;;;;;;301.87;82.90;;;;;;;;;;4981225;28;20090;-62
2023/09/12 02:43:49;;;;;;;357.85;86.63;;;;;;;;;;4982410;28;20108;-62
2023/09/12 02:46:37;;;;;;;267.95;77.88;;;;;;;;;;4983688;28;20062;-62
2023/09/12 02:49:33;;;;;;;309.70;84.30;;;;;;;;;;4982491;28;20058;-62
2023/09/12 02:52:20;;;;;;;272.85;84.63;;;;;;;;;;4981792;28;20116;-59
2023/09/12 02:55:14;;;;;;;257.38;79.07;;;;;;;;;;4983849;28;20054;-59
2023/09/12 02:58:08;;;;;;;263.50;79.15;;;;;;;;;;4981264;28;20069;-59
2023/09/12 03:00:55;;;;;;;280.17;84.78;;;;;;;;;;4980606;28;20132;-59
2023/09/12 03:03:50;;;;;;;277.08;82.95;;;;;;;;;;4980842;28;20054;-59
2023/09/12 03:06:43;;;;;;;246.93;81.45;;;;;;;;;;4979176;28;20761;-59
2023/09/12 03:09:38;;;;;;;226.15;79.53;;;;;;;;;;4979875;28;20053;-59
2023/09/12 03:12:31;;;;;;;251.45;82.30;;;;;;;;;;4982319;28;20050;-48
2023/09/12 03:15:25;;;;;;;193.13;72.68;;;;;;;;;;4977244;28;20054;-63
2023/09/12 03:18:12;;;;;;;173.00;67.43;;;;;;;;;;4974344;28;20105;-63
2023/09/12 03:21:07;;;;;;;223.48;74.15;;;;;;;;;;4980342;28;20057;-62
2023/09/12 03:23:54;;;;;;;212.13;72.75;;;;;;;;;;4978911;28;20396;-62
2023/09/12 03:26:48;;;;;;;211.63;74.90;;;;;;;;;;4983452;28;20148;-62
2023/09/12 03:29:35;;;;;;;177.57;64.32;;;;;;;;;;4978220;28;20046;-59
2023/09/12 03:32:29;;;;;;;168.00;64.82;;;;;;;;;;4982191;28;20060;-63
2023/09/12 03:35:17;;;;;;;162.85;64.47;;;;;;;;;;4981722;28;20058;-63
2023/09/12 03:38:10;;;;;;;164.25;62.03;;;;;;;;;;4980395;28;20494;-63
2023/09/12 03:40:57;;;;;;;147.10;59.40;;;;;;;;;;4980723;28;20069;-63
2023/09/12 03:43:51;;;;;;;153.93;61.15;;;;;;;;;;4978739;28;20066;-63
2023/09/12 03:46:38;;;;;;;128.77;55.80;;;;;;;;;;4972803;28;20054;-63
2023/09/12 03:49:32;;;;;;;129.55;54.47;;;;;;;;;;4973116;28;20137;-63
2023/09/12 03:52:19;;;;;;;128.25;52.70;;;;;;;;;;4975973;28;20055;-59
2023/09/12 03:55:13;;;;;;;124.20;52.08;;;;;;;;;;4974636;28;20478;-59
2023/09/12 03:58:07;;;;;;;145.13;57.80;;;;;;;;;;4976666;28;20057;-60
2023/09/12 04:00:54;;;;;;;130.48;55.45;;;;;;;;;;4978728;28;20055;-60
2023/09/12 04:03:48;;;;;;;83.97;42.28;;;;;;;;;;4970461;28;20057;-60
2023/09/12 04:06:36;;;;;;;91.75;43.22;;;;;;;;;;4970009;28;20133;-59
2023/09/12 04:09:36;;;;;;;78.13;41.00;;;;;;;;;;4964601;28;20042;-63
2023/09/12 04:12:24;;;;;;;81.63;40.28;;;;;;;;;;4968205;28;20069;-63
2023/09/12 04:15:18;;;;;;;77.82;38.80;;;;;;;;;;4969674;28;20862;-63
2023/09/12 04:18:05;;;;;;;74.03;35.17;;;;;;;;;;4973829;28;20058;-63
2023/09/12 04:20:59;;;;;;;68.22;34.80;;;;;;;;;;4977160;28;20065;-64
2023/09/12 04:23:46;;;;;;;63.60;33.53;;;;;;;;;;4978419;28;20054;-63
2023/09/12 04:26:40;;;;;;;59.53;32.85;;;;;;;;;;4977960;28;20065;-59
2023/09/12 04:29:37;;;;;;;53.85;29.73;;;;;;;;;;4980288;28;20050;-50
2023/09/12 04:32:24;;;;;;;65.88;32.30;;;;;;;;;;4977608;28;20058;-51
2023/09/12 04:35:19;;;;;;;59.17;29.85;;;;;;;;;;4978363;28;20081;-50
2023/09/12 04:38:12;;;;;;;54.78;27.58;;;;;;;;;;4979031;28;20521;-46
2023/09/12 04:41:04;;;;;;;38.45;22.02;;;;;;;;;;4973745;28;20065;-50
2023/09/12 04:43:58;;;;;;;38.00;20.20;;;;;;;;;;4969340;28;20081;-63
2023/09/12 04:46:25;;;;;;;35.85;20.17;;;;;;;;;;4971219;28;20478;-46
2023/09/12 04:48:52;;;;;;;32.13;18.90;;;;;;;;;;4975369;28;20162;-47
2023/09/12 04:51:27;;;;;;;29.02;16.30;;;;;;;;;;4973559;28;20506;-49
2023/09/12 04:54:13;;;;;;;36.42;19.98;;;;;;;;;;4952881;28;20054;-51
2023/09/12 04:56:47;;;;;;;34.65;19.52;;;;;;;;;;4983068;28;20137;-50
2023/09/12 04:59:34;;;;;;;29.38;17.48;;;;;;;;;;4984527;28;20181;-51
2023/09/12 05:02:28;;;;;;;31.77;19.55;;;;;;;;;;4981527;28;20065;-57
2023/09/12 05:05:16;;;;;;;32.85;19.05;;;;;;;;;;4977211;28;20469;-59
2023/09/12 05:08:09;;;;;;;23.45;14.55;;;;;;;;;;4978172;28;20058;-59
2023/09/12 05:11:10;;;;;;;26.33;15.65;;;;;;;;;;4985036;28;20061;-60
2023/09/12 05:13:57;;;;;;;30.73;17.58;;;;;;;;;;4980271;28;20094;-60
2023/09/12 05:16:51;;;;;;;28.70;17.75;;;;;;;;;;4982376;28;21703;-59
2023/09/12 05:19:45;;;;;;;28.60;18.25;;;;;;;;;;4982687;28;20136;-53
2023/09/12 05:22:45;;;;;;;30.23;18.83;;;;;;;;;;4980066;28;20054;-48
2023/09/12 05:25:33;;;;;;;31.08;18.15;;;;;;;;;;4988551;28;20125;-50
2023/09/12 05:28:27;;;;;;;29.92;18.38;;;;;;;;;;4988785;28;20050;-51
2023/09/12 05:31:14;;;;;;;28.70;17.40;;;;;;;;;;4987891;28;20061;-49
2023/09/12 05:34:08;;;;;;;30.75;18.63;;;;;;;;;;4986452;28;20082;-48
2023/09/12 05:36:56;;;;;;;33.20;18.98;;;;;;;;;;4985574;28;20050;-48
2023/09/12 05:39:50;;;;;;;25.20;15.20;;;;;;;;;;4988631;28;20109;-57
2023/09/12 05:42:37;;;;;;;28.85;17.48;;;;;;;;;;4985405;28;20155;-57
2023/09/12 05:45:32;;;;;;;29.50;19.42;;;;;;;;;;4979886;28;20055;-57
2023/09/12 05:48:19;;;;;;;33.83;18.08;;;;;;;;;;4978861;28;20415;-50
2023/09/12 05:51:12;;;;;;;23.52;16.15;;;;;;;;;;4986528;28;20525;-51
2023/09/12 05:54:07;;;;;;;28.23;16.33;;;;;;;;;;4989612;28;20585;-53
2023/09/12 05:56:54;;;;;;;29.33;17.20;;;;;;;;;;4986877;28;20058;-49
2023/09/12 05:59:48;;;;;;;21.77;14.43;;;;;;;;;;4987646;28;20068;-52
2023/09/12 06:02:35;;;;;;;27.13;15.57;;;;;;;;;;4985003;28;20138;-53
2023/09/12 06:05:29;;;;;;;27.45;16.05;;;;;;;;;;4982315;28;20536;-52
2023/09/12 06:08:23;;;;;;;26.08;16.95;;;;;;;;;;4986113;28;20109;-58
2023/09/12 06:11:24;;;;;;;24.05;15.95;;;;;;;;;;4986154;28;20542;-58
2023/09/12 06:14:18;;;;;;;23.35;15.00;;;;;;;;;;4986643;28;20066;-58
2023/09/12 06:17:12;;;;;;;26.98;17.00;;;;;;;;;;4985579;28;20154;-60
2023/09/12 06:19:59;;;;;;;32.25;17.08;;;;;;;;;;4985959;28;20054;-51
2023/09/12 06:22:53;;;;;;;24.13;16.42;;;;;;;;;;4983880;28;20537;-48
2023/09/12 06:25:40;;;;;;;32.17;17.63;;;;;;;;;;4986519;28;20050;-46
2023/09/12 06:28:34;;;;;;;29.35;16.65;;;;;;;;;;4986556;28;20050;-52
2023/09/12 06:31:21;;;;;;;28.48;17.30;;;;;;;;;;4983547;28;20135;-49
2023/09/12 06:34:15;;;;;;;28.17;16.40;;;;;;;;;;4985901;28;20060;-50
2023/09/12 06:37:09;;;;;;;26.95;16.55;;;;;;;;;;4988155;28;20137;-62
2023/09/12 06:40:03;;;;;;;22.13;14.90;;;;;;;;;;4987912;28;20505;-62
2023/09/12 06:42:50;;;;;;;25.60;15.85;;;;;;;;;;4986693;28;20054;-62
2023/09/12 06:45:44;;;;;;;20.08;14.63;;;;;;;;;;4985309;28;20066;-60
2023/09/12 06:48:38;;;;;;;23.35;14.27;;;;;;;;;;4987872;28;20258;-64
2023/09/12 06:51:25;;;;;;;24.50;13.95;;;;;;;;;;4985958;28;20058;-64
2023/09/12 06:54:19;;;;;;;22.35;13.13;;;;;;;;;;4989429;28;20583;-65
2023/09/12 06:57:06;;;;;;;20.92;13.82;;;;;;;;;;4986834;28;20573;-64
2023/09/12 07:00:00;;;;;;;26.10;13.80;;;;;;;;;;4983619;28;20058;-64
2023/09/12 07:02:47;;;;;;;26.45;14.60;;;;;;;;;;4988968;28;20049;-64
2023/09/12 07:05:43;;;;;;;21.67;13.45;;;;;;;;;;4987025;28;20389;-61
2023/09/12 07:08:37;;;;;;;23.15;12.95;;;;;;;;;;4987872;28;20137;-61
2023/09/12 07:11:30;;;;;;;;;;;;;;;;;;4985038;28;20467;-61
2023/09/12 07:14:25;;;;;;;30.15;14.27;;;;;;;;;;4986369;28;19981;-60
2023/09/12 07:17:18;;;;;;;24.52;13.27;;;;;;;;;;4981124;28;20775;-62
2023/09/12 07:20:11;;;;;;;22.85;13.68;;;;;;;;;;4983001;28;20512;-62
2023/09/12 07:22:59;;;;;;;22.95;13.55;;;;;;;;;;4983156;28;20117;-62
2023/09/12 07:25:46;;;;;;;23.23;12.65;;;;;;;;;;4988633;28;20113;-62
2023/09/12 07:28:40;;;;;;;21.52;12.98;;;;;;;;;;4986452;28;20482;-61
2023/09/12 07:31:27;;;;;;;21.45;12.55;;;;;;;;;;4985533;28;20054;-62
2023/09/12 07:34:21;;;;;;;20.98;10.57;;;;;;;;;;4986482;28;20054;-64
2023/09/12 07:37:08;;;;;;;17.83;10.07;;;;;;;;;;4988000;28;20049;-64
2023/09/12 07:40:09;;;;;;;21.27;10.90;;;;;;;;;;4985242;28;20057;-63
2023/09/12 07:42:56;;;;;;;17.67;10.55;;;;;;;;;;4988359;28;20043;-59
2023/09/12 07:45:50;;;;;;;18.73;10.10;;;;;;;;;;4985970;28;20062;-62
2023/09/12 07:48:37;;;;;;;19.42;9.45;;;;;;;;;;4986904;28;20050;-63
2023/09/12 07:51:31;;;;;;;17.02;9.80;;;;;;;;;;4987316;28;20684;-62
2023/09/12 07:54:18;;;;;;;18.70;10.20;;;;;;;;;;4983678;28;20068;-62
2023/09/12 07:57:12;;;;;;;20.80;10.73;;;;;;;;;;4986804;28;20060;-62
2023/09/12 08:00:09;;;;;;;21.25;9.50;;;;;;;;;;4986281;28;20130;-50
2023/09/12 08:03:00;;;;;;;16.23;10.13;;;;;;;;;;4981933;28;21222;-48
2023/09/12 08:05:57;;;;;;;15.52;10.57;;;;;;;;;;4983761;28;20073;-53
2023/09/12 08:08:57;;;;;;;19.95;11.38;;;;;;;;;;4983087;28;20057;-48
2023/09/12 08:11:44;;;;;;;18.38;9.80;;;;;;;;;;4987357;28;20510;-55
2023/09/12 08:14:38;;;;;;;18.15;10.43;;;;;;;;;;4984762;28;20137;-60
2023/09/12 08:17:25;;;;;;;21.55;11.23;;;;;;;;;;4982747;28;20874;-61
2023/09/12 08:20:20;;;;;;;19.10;9.35;;;;;;;;;;4980880;28;20074;-60
2023/09/12 08:23:07;;;;;;;15.30;10.20;;;;;;;;;;4984365;28;20055;-60
2023/09/12 08:26:01;;;;;;;19.45;9.48;;;;;;;;;;4984049;28;20316;-60
2023/09/12 08:28:48;;;;;;;16.77;9.35;;;;;;;;;;4981684;28;20109;-58
2023/09/12 08:31:42;;;;;;;18.70;9.50;;;;;;;;;;4985564;28;20491;-58
2023/09/12 08:34:30;;;;;;;15.40;9.98;;;;;;;;;;4986472;28;20434;-59
2023/09/12 08:37:23;;;;;;;12.95;8.88;;;;;;;;;;4985586;28;20058;-59
2023/09/12 08:40:11;;;;;;;19.67;8.65;;;;;;;;;;4984873;28;20134;-60
2023/09/12 08:43:04;;;;;;;14.38;9.52;;;;;;;;;;4986397;28;20108;-57
2023/09/12 08:45:51;;;;;;;17.15;9.40;;;;;;;;;;4984942;28;20498;-57
2023/09/12 08:48:46;;;;;;;12.63;8.18;;;;;;;;;;4983399;28;20485;-57
2023/09/12 08:51:33;;;;;;;12.52;7.93;;;;;;;;;;4986987;28;20467;-57
2023/09/12 08:54:27;;;;;;;16.48;7.78;;;;;;;;;;4983650;28;20593;-57
2023/09/12 08:57:22;;;;;;;15.40;7.55;;;;;;;;;;4987356;28;20046;-58
2023/09/12 09:00:12;;;;;;;11.90;6.20;;;;;;;;;;4988890;28;20050;-58
2023/09/12 09:03:04;;;;;;;21.50;6.63;;;;;;;;;;4988265;28;20576;-58
2023/09/12 09:05:58;;;;;;;9.95;5.78;;;;;;;;;;4988357;28;20038;-58
2023/09/12 09:08:52;;;;;;;12.07;5.78;;;;;;;;;;4979580;28;20126;-51
2023/09/12 09:11:45;;;;;;;13.52;6.00;;;;;;;;;;4967065;28;20051;-51
2023/09/12 09:14:32;;;;;;;14.93;5.80;;;;;;;;;;4968275;28;20110;-51
2023/09/12 09:17:27;;;;;;;11.18;5.10;;;;;;;;;;4971564;28;20110;-50
2023/09/12 09:20:30;;;;;;;14.43;5.53;;;;;;;;;;4972485;28;20050;-47
2023/09/12 09:23:24;;;;;;;10.80;5.60;;;;;;;;;;4968659;28;20306;-50
2023/09/12 09:26:11;;;;;;;14.25;5.65;;;;;;;;;;4961381;28;20157;-58
2023/09/12 09:29:06;;;;;;;12.07;5.60;;;;;;;;;;4973704;28;21047;-57
2023/09/12 09:31:53;;;;;;;13.13;5.15;;;;;;;;;;4963047;28;20141;-58
2023/09/12 09:34:47;;;;;;;11.95;5.35;;;;;;;;;;4972414;28;20067;-58
2023/09/12 09:37:34;;;;;;;10.55;5.28;;;;;;;;;;4965041;28;20123;-59
2023/09/12 09:40:28;;;;;;;10.20;4.90;;;;;;;;;;4967945;28;20523;-49
2023/09/12 09:43:20;;;;;;;12.35;5.78;;;;;;;;;;4965356;28;20055;-52
2023/09/12 09:46:16;;;;;;;13.02;5.72;;;;;;;;;;4972371;28;20059;-50
2023/09/12 09:49:06;;;;;;;12.13;5.13;;;;;;;;;;4971189;28;20058;-51
2023/09/12 09:51:58;;;;;;;12.15;5.20;;;;;;;;;;4967576;28;20118;-53
2023/09/12 09:54:45;;;;;;;12.05;5.32;;;;;;;;;;4972371;28;20055;-48
2023/09/12 09:57:38;;;;;;;13.32;5.05;;;;;;;;;;4965500;28;20066;-49
2023/09/12 10:00:25;;;;;;;9.90;5.50;;;;;;;;;;4971131;28;20495;-49
2023/09/12 10:03:20;;;;;;;8.60;4.72;;;;;;;;;;4970114;28;20141;-48
2023/09/12 10:06:09;;;;;;;7.20;4.43;;;;;;;;;;4965915;28;20130;-55
2023/09/12 10:09:06;;;;;;;14.32;4.97;;;;;;;;;;4973551;28;20149;-59
2023/09/12 10:12:07;;;;;;;10.13;4.60;;;;;;;;;;4978497;28;20110;-59
2023/09/12 10:15:01;;;;;;;10.63;4.38;;;;;;;;;;4982099;28;20156;-59
2023/09/12 10:17:56;;;;;;;7.35;4.40;;;;;;;;;;4988709;28;20637;-59
2023/09/12 10:20:55;;;;;;;10.13;4.25;;;;;;;;;;4972459;28;20055;-59
2023/09/12 10:23:44;;;;;;;12.68;4.72;;;;;;;;;;4978089;28;20062;-58
2023/09/12 10:26:43;;;;;;;8.85;4.57;;;;;;;;;;4988054;28;20050;-59
2023/09/12 10:29:26;;;;;;;13.93;4.72;;;;;;;;;;4983272;28;20186;-59
2023/09/12 10:32:20;;;;;;;10.32;4.72;;;;;;;;;;4985561;28;20050;-55
2023/09/12 10:35:08;;;;;;;9.25;4.15;;;;;;;;;;4978871;28;20058;-58
2023/09/12 10:38:06;;;;;;;8.40;4.05;;;;;;;;;;4971104;28;20459;-63
2023/09/12 10:40:55;;;;;;;11.82;4.63;;;;;;;;;;4983322;28;20104;-64
2023/09/12 10:43:52;;;;;;;9.13;4.50;;;;;;;;;;4981731;28;20057;-63
2023/09/12 10:46:39;;;;;;;14.95;4.68;;;;;;;;;;4971334;28;20062;-63
2023/09/12 10:49:32;;;;;;;10.75;4.32;;;;;;;;;;4974997;28;20042;-64
2023/09/12 10:52:29;;;;;;;13.32;4.45;;;;;;;;;;4983361;28;20059;-62
2023/09/12 10:55:23;;;;;;;6.55;3.28;;;;;;;;;;4985999;28;20062;-63
2023/09/12 10:58:11;;;;;;;10.15;3.70;;;;;;;;;;4977706;28;20057;-63
2023/09/12 11:01:24;;;;;;;12.27;3.90;;;;;;;;;;4985869;28;20113;-59
2023/09/12 11:04:19;;;;;;;10.52;3.22;;;;;;;;;;4987356;28;20054;-62
2023/09/12 11:07:32;;;;;;;6.63;3.03;;;;;;;;;;4983031;28;20081;-62
2023/09/12 11:10:26;;;;;;;7.38;2.90;;;;;;;;;;4988307;28;20054;-63
2023/09/12 11:13:20;;;;;;;9.85;2.50;;;;;;;;;;4988008;28;20472;-62
2023/09/12 11:16:17;;;;;;;9.60;2.85;;;;;;;;;;4987390;28;21734;-62
2023/09/12 11:19:16;;;;;;;13.05;3.10;;;;;;;;;;4985220;28;20520;-61
2023/09/12 11:22:21;;;;;;;8.40;3.03;;;;;;;;;;4984137;28;20054;-59
2023/09/12 11:25:25;;;;;;;7.25;2.45;;;;;;;;;;4985743;28;20058;-59
2023/09/12 11:28:11;;;;;;;7.85;2.80;;;;;;;;;;4981935;28;20066;-62
2023/09/12 11:31:06;;;;;;;12.50;2.78;;;;;;;;;;4979377;28;20054;-59
2023/09/12 11:33:54;;;;;;;10.02;2.65;;;;;;;;;;4982374;28;20782;-45
2023/09/12 11:36:47;;;;;;;7.10;2.13;;;;;;;;;;4986134;28;20622;-50
2023/09/12 11:39:37;;;;;;;9.23;2.58;;;;;;;;;;4983251;28;21212;-47
2023/09/12 11:42:31;;;;;;;10.68;2.42;;;;;;;;;;4973480;28;20065;-50
2023/09/12 11:45:23;;;;;;;7.70;1.85;;;;;;;;;;4985306;28;20137;-48
2023/09/12 11:48:17;;;;;;;8.93;2.20;;;;;;;;;;4983998;28;20086;-62
2023/09/12 11:51:08;;;;;;;4.50;1.30;;;;;;;;;;4980000;28;20093;-61
2023/09/12 11:54:03;;;;;;;2.85;1.10;;;;;;;;;;4980293;28;20062;-62
2023/09/12 11:56:49;;;;;;;5.82;2.15;;;;;;;;;;4982622;28;20078;-62
2023/09/12 11:59:48;;;;;;;2.70;1.00;;;;;;;;;;4985775;28;20053;-60
2023/09/12 12:02:33;;;;;;;4.10;1.63;;;;;;;;;;4983627;28;20073;-49
2023/09/12 12:05:27;;;;;;;3.42;0.77;;;;;;;;;;4968910;28;20104;-51
2023/09/12 12:08:16;;;;;;;6.03;1.35;;;;;;;;;;4982673;28;20054;-48
2023/09/12 12:11:16;;;;;;;4.13;1.15;;;;;;;;;;4963378;28;20145;-50
2023/09/12 12:14:14;;;;;;;3.75;0.90;;;;;;;;;;4963000;28;20496;-49
2023/09/12 12:17:11;;;;;;;5.63;0.90;;;;;;;;;;4953494;28;20058;-50
2023/09/12 12:19:58;;;;;;;3.95;0.88;;;;;;;;;;4966890;28;20280;-49
2023/09/12 12:22:52;;;;;;;2.00;0.90;;;;;;;;;;4962767;28;20059;-48
2023/09/12 12:25:46;;;;;;;5.13;1.08;;;;;;;;;;4965782;28;20050;-50
2023/09/12 12:28:33;;;;;;;5.43;0.98;;;;;;;;;;4966465;28;20756;-62
2023/09/12 12:31:27;;;;;;;3.08;1.20;;;;;;;;;;4966258;28;20054;-57
2023/09/12 12:34:15;;;;;;;5.35;1.33;;;;;;;;;;4969913;28;20097;-56
2023/09/12 12:37:32;;;;;;;13.77;2.08;;;;;;;;;;4958782;28;20043;-57
2023/09/12 12:40:29;;;;;;;10.02;2.00;;;;;;;;;;4953272;28;20051;-58
2023/09/12 12:43:23;;;;;;;6.72;2.13;;;;;;;;;;4965571;28;20086;-58
2023/09/12 12:46:19;;;;;;;6.90;2.10;;;;;;;;;;4970627;28;20050;-60
2023/09/12 12:49:15;;;;;;;7.30;1.88;;;;;;;;;;4966594;28;20513;-60
2023/09/12 12:52:02;;;;;;;5.93;1.90;;;;;;;;;;4962381;28;20055;-60
2023/09/12 12:55:03;;;;;;;6.97;2.20;;;;;;;;;;4960685;28;20058;-60
2023/09/12 12:57:51;;;;;;;6.82;1.85;;;;;;;;;;4962639;28;20051;-62
2023/09/12 13:00:44;;;;;;;7.70;2.20;;;;;;;;;;4964775;28;20070;-59
2023/09/12 13:03:31;;;;;;;7.35;1.50;;;;;;;;;;4964734;28;20145;-59
2023/09/12 13:06:27;;;;;;;7.60;1.80;;;;;;;;;;4965066;28;20154;-59
2023/09/12 13:09:20;;;;;;;7.72;1.42;;;;;;;;;;4969183;28;20070;-59
2023/09/12 13:12:20;;;;;;;8.80;1.73;;;;;;;;;;4983743;28;20061;-58
2023/09/12 13:15:07;;;;;;;7.60;1.60;;;;;;;;;;4982676;28;20455;-51
2023/09/12 13:18:01;;;;;;;5.65;1.52;;;;;;;;;;4983602;28;20530;-51
2023/09/12 13:20:55;;;;;;;4.60;1.30;;;;;;;;;;4983096;28;20054;-51
2023/09/12 13:23:49;;;;;;;10.05;1.70;;;;;;;;;;4981800;28;20133;-60
2023/09/12 13:26:37;;;;;;;8.02;2.03;;;;;;;;;;4985352;28;20043;-48
2023/09/12 13:29:30;;;;;;;4.45;1.10;;;;;;;;;;4984604;28;20121;-50
2023/09/12 13:32:18;;;;;;;6.93;1.85;;;;;;;;;;4981150;28;20082;-51
2023/09/12 13:35:11;;;;;;;5.68;1.27;;;;;;;;;;4986922;28;20065;-53
2023/09/12 13:38:09;;;;;;;3.35;0.90;;;;;;;;;;4986532;28;20558;-51
2023/09/12 13:40:52;;;;;;;5.60;1.02;;;;;;;;;;4982626;28;20489;-50
2023/09/12 13:43:47;;;;;;;3.45;1.05;;;;;;;;;;4983922;28;20108;-60
2023/09/12 13:46:33;;;;;;;3.22;0.82;;;;;;;;;;4985785;28;20065;-60
2023/09/12 13:49:27;;;;;;;5.57;1.33;;;;;;;;;;4988146;28;20494;-60
2023/09/12 13:52:14;;;;;;;4.43;1.27;;;;;;;;;;4989050;28;20120;-62
2023/09/12 13:55:13;;;;;;;5.50;1.10;;;;;;;;;;4989351;28;20058;-60
2023/09/12 13:58:20;;;;;;;5.78;0.90;;;;;;;;;;4991601;28;20054;-60
2023/09/12 14:01:11;;;;;;;3.63;1.00;;;;;;;;;;4989895;28;20065;-60
2023/09/12 14:04:05;;;;;;;5.68;1.63;;;;;;;;;;4982683;28;20117;-60
2023/09/12 14:06:53;;;;;;;6.30;1.37;;;;;;;;;;4986702;28;20474;-60
2023/09/12 14:09:58;;;;;;;8.23;1.52;;;;;;;;;;4978981;28;20055;-60
2023/09/12 14:12:57;;;;;;;5.00;1.20;;;;;;;;;;4980386;28;20081;-48
2023/09/12 14:15:51;;;;;;;4.82;1.25;;;;;;;;;;4980763;28;20054;-49
2023/09/12 14:18:20;;;;;;;3.85;1.20;;;;;;;;;;4982085;28;20067;-49
2023/09/12 14:21:14;;;;;;;4.63;1.02;;;;;;;;;;4983545;28;20395;-57
2023/09/12 14:24:02;;;;;;;4.13;1.30;;;;;;;;;;4984968;28;20053;-54
2023/09/12 14:26:56;;;;;;;2.83;1.15;;;;;;;;;;4985193;28;20631;-52
2023/09/12 14:29:53;;;;;;;2.28;1.05;;;;;;;;;;4978513;28;20061;-52
2023/09/12 14:32:46;;;;;;;5.25;1.42;;;;;;;;;;4983955;28;20495;-51
2023/09/12 14:35:14;;;;;;;4.32;1.40;;;;;;;;;;4981267;28;20060;-49
2023/09/12 14:37:42;;;;;;;;;;;;;;;;;;4984895;28;21042;-52
2023/09/12 14:40:16;;;;;;;7.70;1.48;;;;;;;;;;4987295;28;19996;-61
2023/09/12 14:43:12;;;;;;;8.13;1.50;;;;;;;;;;4987355;28;20060;-60
2023/09/12 14:46:00;;;;;;;3.15;1.35;;;;;;;;;;4983865;28;20130;-61
2023/09/12 14:48:52;;;;;;;8.40;1.63;;;;;;;;;;4984885;28;20050;-62
2023/09/12 14:51:39;;;;;;;5.30;1.40;;;;;;;;;;4981743;28;20451;-61
2023/09/12 14:54:45;;;;;;;2.78;1.23;;;;;;;;;;4984173;28;20058;-62
2023/09/12 14:57:33;;;;;;;2.28;1.30;;;;;;;;;;4987171;28;20522;-63
2023/09/12 15:00:28;;;;;;;5.35;1.65;;;;;;;;;;4983822;28;20066;-62
2023/09/12 15:03:14;;;;;;;2.92;1.02;;;;;;;;;;4982915;28;20710;-62
2023/09/12 15:06:08;;;;;;;2.83;1.17;;;;;;;;;;4981677;28;20050;-63
2023/09/12 15:08:56;;;;;;;4.35;1.52;;;;;;;;;;4985197;28;20061;-49
2023/09/12 15:11:57;;;;;;;3.58;1.60;;;;;;;;;;4983402;28;20425;-51
2023/09/12 15:14:44;;;;;;;4.03;1.67;;;;;;;;;;4983181;28;20105;-47
2023/09/12 15:17:40;;;;;;;3.75;1.48;;;;;;;;;;4981676;28;20054;-60
2023/09/12 15:20:26;;;;;;;5.45;1.85;;;;;;;;;;4981926;28;20074;-61
2023/09/12 15:23:22;;;;;;;3.65;1.85;;;;;;;;;;4983065;28;20108;-61
2023/09/12 15:26:07;;;;;;;4.43;1.77;;;;;;;;;;4984546;28;20050;-60
2023/09/12 15:29:02;;;;;;;2.28;1.63;;;;;;;;;;4984102;28;20149;-59
2023/09/12 15:31:49;;;;;;;5.68;1.95;;;;;;;;;;4985523;28;20050;-60
2023/09/12 15:34:43;;;;;;;4.20;1.70;;;;;;;;;;4984855;28;20859;-60
2023/09/12 15:37:31;;;;;;;5.15;1.52;;;;;;;;;;4986385;28;20046;-50
2023/09/12 15:40:24;;;;;;;4.57;1.65;;;;;;;;;;4985335;28;20066;-50
2023/09/12 15:43:11;;;;;;;3.53;1.50;;;;;;;;;;4978333;28;20050;-50
2023/09/12 15:46:05;;;;;;;3.55;1.50;;;;;;;;;;4983271;28;20117;-61
2023/09/12 15:49:02;;;;;;;8.02;2.03;;;;;;;;;;4981774;28;20054;-49
2023/09/12 15:51:57;;;;;;;3.95;1.58;;;;;;;;;;4981225;28;20058;-46
2023/09/12 15:54:43;;;;;;;6.25;1.50;;;;;;;;;;4981194;28;20062;-46
2023/09/12 15:57:44;;;;;;;2.97;1.50;;;;;;;;;;4984539;28;20395;-48
2023/09/12 16:00:32;;;;;;;4.25;1.33;;;;;;;;;;4985168;28;20112;-49
2023/09/12 16:03:25;;;;;;;1.92;1.52;;;;;;;;;;4983101;28;20137;-48
2023/09/12 16:06:13;;;;;;;9.70;1.80;;;;;;;;;;4983794;28;20136;-63
2023/09/12 16:09:14;;;;;;;4.88;1.70;;;;;;;;;;4981944;28;20069;-63
2023/09/12 16:12:08;;;;;;;3.30;1.60;;;;;;;;;;4983149;28;20062;-63
2023/09/12 16:15:02;;;;;;;4.25;1.50;;;;;;;;;;4983497;28;20057;-60
2023/09/12 16:17:50;;;;;;;5.47;1.67;;;;;;;;;;4985802;28;20090;-48
2023/09/12 16:20:43;;;;;;;6.22;1.58;;;;;;;;;;4984027;28;20062;-52
2023/09/12 16:23:31;;;;;;;7.07;2.00;;;;;;;;;;4983600;28;20053;-47
2023/09/12 16:26:24;;;;;;;5.35;2.28;;;;;;;;;;4985281;28;20137;-49
2023/09/12 16:29:18;;;;;;;4.90;2.30;;;;;;;;;;4983477;28;20055;-50
2023/09/12 16:32:06;;;;;;;6.65;2.00;;;;;;;;;;4983320;28;20050;-52
2023/09/12 16:35:01;;;;;;;7.97;1.92;;;;;;;;;;4984041;28;20743;-59
2023/09/12 16:37:47;;;;;;;6.28;2.10;;;;;;;;;;4984605;28;20105;-59
2023/09/12 16:40:40;;;;;;;5.35;2.00;;;;;;;;;;4983935;28;20050;-59
2023/09/12 16:43:28;;;;;;;4.07;1.50;;;;;;;;;;4984932;28;20141;-60
2023/09/12 16:46:21;;;;;;;5.38;1.83;;;;;;;;;;4983526;28;20054;-50
2023/09/12 16:49:08;;;;;;;4.93;2.00;;;;;;;;;;4981294;28;20058;-52